sensor_id;sensor_type;location;lat;lon;timestamp;P1;durP1;ratioP1;P2;durP2;ratioP2
18899;SDS011;9582;52.018;6.306;2022-07-29T00:01:17;2.50;;;1.40;;
18899;SDS011;9582;52.018;6.306;2022-07-29T00:03:44;4.80;;;1.80;;
18899;SDS011;9582;52.018;6.306;2022-07-29T00:06:10;3.42;;;1.60;;
18899;SDS011;9582;52.018;6.306;2022-07-29T00:08:37;2.78;;;1.60;;
18899;SDS011;9582;52.018;6.306;2022-07-29T00:11:03;2.00;;;1.58;;
18899;SDS011;9582;52.018;6.306;2022-07-29T00:13:30;3.47;;;1.92;;
18899;SDS011;9582;52.018;6.306;2022-07-29T00:15:57;5.35;;;1.80;;
18899;SDS011;9582;52.018;6.306;2022-07-29T00:18:24;2.20;;;1.88;;
18899;SDS011;9582;52.018;6.306;2022-07-29T00:20:51;3.97;;;1.75;;
18899;SDS011;9582;52.018;6.306;2022-07-29T00:23:17;2.67;;;1.60;;
18899;SDS011;9582;52.018;6.306;2022-07-29T00:25:44;1.85;;;1.75;;
18899;SDS011;9582;52.018;6.306;2022-07-29T00:28:10;3.55;;;1.80;;
18899;SDS011;9582;52.018;6.306;2022-07-29T00:30:37;2.45;;;1.70;;
18899;SDS011;9582;52.018;6.306;2022-07-29T00:33:04;3.85;;;1.90;;
18899;SDS011;9582;52.018;6.306;2022-07-29T00:35:31;3.33;;;1.70;;
18899;SDS011;9582;52.018;6.306;2022-07-29T00:38:12;2.33;;;1.63;;
18899;SDS011;9582;52.018;6.306;2022-07-29T00:40:39;3.08;;;1.80;;
18899;SDS011;9582;52.018;6.306;2022-07-29T00:43:06;5.57;;;2.42;;
18899;SDS011;9582;52.018;6.306;2022-07-29T00:45:33;4.07;;;1.92;;
18899;SDS011;9582;52.018;6.306;2022-07-29T00:48:00;3.67;;;1.80;;
18899;SDS011;9582;52.018;6.306;2022-07-29T00:50:28;2.88;;;1.45;;
18899;SDS011;9582;52.018;6.306;2022-07-29T00:52:55;3.25;;;1.90;;
18899;SDS011;9582;52.018;6.306;2022-07-29T00:55:22;2.67;;;2.00;;
18899;SDS011;9582;52.018;6.306;2022-07-29T00:57:48;4.55;;;1.80;;
18899;SDS011;9582;52.018;6.306;2022-07-29T01:00:16;2.70;;;2.08;;
18899;SDS011;9582;52.018;6.306;2022-07-29T01:02:44;1.90;;;1.80;;
18899;SDS011;9582;52.018;6.306;2022-07-29T01:05:13;2.95;;;2.13;;
18899;SDS011;9582;52.018;6.306;2022-07-29T01:07:43;5.30;;;2.28;;
18899;SDS011;9582;52.018;6.306;2022-07-29T01:10:12;3.78;;;1.75;;
18899;SDS011;9582;52.018;6.306;2022-07-29T01:12:40;2.78;;;1.90;;
18899;SDS011;9582;52.018;6.306;2022-07-29T01:15:09;2.90;;;2.33;;
18899;SDS011;9582;52.018;6.306;2022-07-29T01:17:36;2.78;;;1.77;;
18899;SDS011;9582;52.018;6.306;2022-07-29T01:20:10;3.63;;;1.83;;
18899;SDS011;9582;52.018;6.306;2022-07-29T01:23:06;4.90;;;2.20;;
18899;SDS011;9582;52.018;6.306;2022-07-29T01:25:44;3.85;;;2.40;;
18899;SDS011;9582;52.018;6.306;2022-07-29T01:28:36;3.78;;;1.55;;
18899;SDS011;9582;52.018;6.306;2022-07-29T01:31:10;3.72;;;2.10;;
18899;SDS011;9582;52.018;6.306;2022-07-29T01:33:41;3.05;;;2.00;;
18899;SDS011;9582;52.018;6.306;2022-07-29T01:36:17;5.60;;;1.90;;
18899;SDS011;9582;52.018;6.306;2022-07-29T01:38:50;3.47;;;2.00;;
18899;SDS011;9582;52.018;6.306;2022-07-29T01:41:24;4.22;;;1.90;;
18899;SDS011;9582;52.018;6.306;2022-07-29T01:43:56;4.00;;;2.10;;
18899;SDS011;9582;52.018;6.306;2022-07-29T01:46:27;4.90;;;2.10;;
18899;SDS011;9582;52.018;6.306;2022-07-29T01:48:57;2.45;;;1.90;;
18899;SDS011;9582;52.018;6.306;2022-07-29T01:51:29;3.58;;;1.95;;
18899;SDS011;9582;52.018;6.306;2022-07-29T01:54:01;3.17;;;2.17;;
18899;SDS011;9582;52.018;6.306;2022-07-29T01:56:31;3.05;;;1.75;;
18899;SDS011;9582;52.018;6.306;2022-07-29T01:59:01;3.47;;;2.15;;
18899;SDS011;9582;52.018;6.306;2022-07-29T02:01:29;3.58;;;2.38;;
18899;SDS011;9582;52.018;6.306;2022-07-29T02:03:57;2.70;;;1.85;;
18899;SDS011;9582;52.018;6.306;2022-07-29T02:06:25;5.90;;;2.17;;
18899;SDS011;9582;52.018;6.306;2022-07-29T02:08:53;3.15;;;2.10;;
18899;SDS011;9582;52.018;6.306;2022-07-29T02:11:24;4.78;;;2.30;;
18899;SDS011;9582;52.018;6.306;2022-07-29T02:13:51;4.85;;;2.08;;
18899;SDS011;9582;52.018;6.306;2022-07-29T02:16:21;3.85;;;2.28;;
18899;SDS011;9582;52.018;6.306;2022-07-29T02:18:49;3.88;;;2.45;;
18899;SDS011;9582;52.018;6.306;2022-07-29T02:21:19;3.03;;;1.90;;
18899;SDS011;9582;52.018;6.306;2022-07-29T02:23:49;5.63;;;2.35;;
18899;SDS011;9582;52.018;6.306;2022-07-29T02:26:18;3.70;;;2.13;;
18899;SDS011;9582;52.018;6.306;2022-07-29T02:28:46;5.43;;;2.42;;
18899;SDS011;9582;52.018;6.306;2022-07-29T02:31:14;3.58;;;2.22;;
18899;SDS011;9582;52.018;6.306;2022-07-29T02:33:44;4.53;;;2.40;;
18899;SDS011;9582;52.018;6.306;2022-07-29T02:36:13;4.43;;;2.25;;
18899;SDS011;9582;52.018;6.306;2022-07-29T02:38:40;4.25;;;2.10;;
18899;SDS011;9582;52.018;6.306;2022-07-29T02:41:18;4.47;;;2.65;;
18899;SDS011;9582;52.018;6.306;2022-07-29T02:43:47;6.40;;;2.75;;
18899;SDS011;9582;52.018;6.306;2022-07-29T02:46:16;2.83;;;2.30;;
18899;SDS011;9582;52.018;6.306;2022-07-29T02:48:51;2.58;;;2.20;;
18899;SDS011;9582;52.018;6.306;2022-07-29T02:51:23;4.32;;;3.17;;
18899;SDS011;9582;52.018;6.306;2022-07-29T02:53:54;4.13;;;3.00;;
18899;SDS011;9582;52.018;6.306;2022-07-29T02:56:25;5.43;;;2.70;;
18899;SDS011;9582;52.018;6.306;2022-07-29T02:58:54;4.53;;;2.65;;
18899;SDS011;9582;52.018;6.306;2022-07-29T03:01:23;3.00;;;2.70;;
18899;SDS011;9582;52.018;6.306;2022-07-29T03:03:54;3.65;;;2.60;;
18899;SDS011;9582;52.018;6.306;2022-07-29T03:06:22;5.22;;;2.90;;
18899;SDS011;9582;52.018;6.306;2022-07-29T03:08:52;3.67;;;3.13;;
18899;SDS011;9582;52.018;6.306;2022-07-29T03:11:20;3.75;;;3.03;;
18899;SDS011;9582;52.018;6.306;2022-07-29T03:13:47;4.47;;;3.08;;
18899;SDS011;9582;52.018;6.306;2022-07-29T03:16:14;4.38;;;2.70;;
18899;SDS011;9582;52.018;6.306;2022-07-29T03:18:42;4.25;;;3.10;;
18899;SDS011;9582;52.018;6.306;2022-07-29T03:21:10;4.40;;;3.15;;
18899;SDS011;9582;52.018;6.306;2022-07-29T03:23:36;4.63;;;2.97;;
18899;SDS011;9582;52.018;6.306;2022-07-29T03:26:03;4.70;;;2.90;;
18899;SDS011;9582;52.018;6.306;2022-07-29T03:28:30;3.92;;;3.33;;
18899;SDS011;9582;52.018;6.306;2022-07-29T03:30:56;4.00;;;3.03;;
18899;SDS011;9582;52.018;6.306;2022-07-29T03:33:23;3.55;;;2.90;;
18899;SDS011;9582;52.018;6.306;2022-07-29T03:35:49;4.50;;;3.33;;
18899;SDS011;9582;52.018;6.306;2022-07-29T03:38:17;4.28;;;3.33;;
18899;SDS011;9582;52.018;6.306;2022-07-29T03:40:45;3.78;;;3.40;;
18899;SDS011;9582;52.018;6.306;2022-07-29T03:43:17;4.30;;;3.50;;
18899;SDS011;9582;52.018;6.306;2022-07-29T03:45:47;5.25;;;3.20;;
18899;SDS011;9582;52.018;6.306;2022-07-29T03:48:16;3.22;;;2.92;;
18899;SDS011;9582;52.018;6.306;2022-07-29T03:50:45;3.47;;;3.15;;
18899;SDS011;9582;52.018;6.306;2022-07-29T03:53:12;3.85;;;2.63;;
18899;SDS011;9582;52.018;6.306;2022-07-29T03:55:41;4.28;;;3.33;;
18899;SDS011;9582;52.018;6.306;2022-07-29T03:58:11;4.13;;;3.28;;
18899;SDS011;9582;52.018;6.306;2022-07-29T04:00:39;4.70;;;2.83;;
18899;SDS011;9582;52.018;6.306;2022-07-29T04:03:06;3.08;;;2.78;;
18899;SDS011;9582;52.018;6.306;2022-07-29T04:05:33;4.30;;;3.03;;
18899;SDS011;9582;52.018;6.306;2022-07-29T04:07:59;4.28;;;2.88;;
18899;SDS011;9582;52.018;6.306;2022-07-29T04:10:26;6.10;;;3.15;;
18899;SDS011;9582;52.018;6.306;2022-07-29T04:12:54;5.05;;;3.72;;
18899;SDS011;9582;52.018;6.306;2022-07-29T04:15:20;5.85;;;3.70;;
18899;SDS011;9582;52.018;6.306;2022-07-29T04:17:47;5.55;;;3.67;;
18899;SDS011;9582;52.018;6.306;2022-07-29T04:20:13;5.13;;;3.95;;
18899;SDS011;9582;52.018;6.306;2022-07-29T04:22:40;6.72;;;4.32;;
18899;SDS011;9582;52.018;6.306;2022-07-29T04:25:07;5.32;;;4.25;;
18899;SDS011;9582;52.018;6.306;2022-07-29T04:27:34;5.05;;;4.20;;
18899;SDS011;9582;52.018;6.306;2022-07-29T04:30:22;5.80;;;4.32;;
18899;SDS011;9582;52.018;6.306;2022-07-29T04:32:49;4.78;;;4.10;;
18899;SDS011;9582;52.018;6.306;2022-07-29T04:35:15;6.57;;;4.18;;
18899;SDS011;9582;52.018;6.306;2022-07-29T04:37:41;5.20;;;3.72;;
18899;SDS011;9582;52.018;6.306;2022-07-29T04:40:08;4.40;;;4.00;;
18899;SDS011;9582;52.018;6.306;2022-07-29T04:42:35;4.57;;;3.58;;
18899;SDS011;9582;52.018;6.306;2022-07-29T04:45:02;4.15;;;3.55;;
18899;SDS011;9582;52.018;6.306;2022-07-29T04:47:30;6.30;;;4.07;;
18899;SDS011;9582;52.018;6.306;2022-07-29T04:49:57;4.53;;;3.80;;
18899;SDS011;9582;52.018;6.306;2022-07-29T04:52:23;4.65;;;3.60;;
18899;SDS011;9582;52.018;6.306;2022-07-29T04:54:50;4.20;;;3.80;;
18899;SDS011;9582;52.018;6.306;2022-07-29T04:57:16;5.47;;;3.60;;
18899;SDS011;9582;52.018;6.306;2022-07-29T04:59:43;6.72;;;4.03;;
18899;SDS011;9582;52.018;6.306;2022-07-29T05:02:09;7.22;;;3.92;;
18899;SDS011;9582;52.018;6.306;2022-07-29T05:04:37;4.72;;;3.42;;
18899;SDS011;9582;52.018;6.306;2022-07-29T05:07:03;5.50;;;3.40;;
18899;SDS011;9582;52.018;6.306;2022-07-29T05:09:30;5.47;;;3.55;;
18899;SDS011;9582;52.018;6.306;2022-07-29T05:11:57;3.90;;;3.50;;
18899;SDS011;9582;52.018;6.306;2022-07-29T05:14:23;3.65;;;3.35;;
18899;SDS011;9582;52.018;6.306;2022-07-29T05:16:50;5.57;;;3.38;;
18899;SDS011;9582;52.018;6.306;2022-07-29T05:19:17;4.32;;;3.75;;
18899;SDS011;9582;52.018;6.306;2022-07-29T05:21:45;6.90;;;3.90;;
18899;SDS011;9582;52.018;6.306;2022-07-29T05:24:12;5.47;;;3.63;;
18899;SDS011;9582;52.018;6.306;2022-07-29T05:26:39;6.32;;;4.25;;
18899;SDS011;9582;52.018;6.306;2022-07-29T05:29:05;4.47;;;3.70;;
18899;SDS011;9582;52.018;6.306;2022-07-29T05:31:32;5.43;;;4.03;;
18899;SDS011;9582;52.018;6.306;2022-07-29T05:33:59;7.68;;;3.80;;
18899;SDS011;9582;52.018;6.306;2022-07-29T05:36:26;4.35;;;3.95;;
18899;SDS011;9582;52.018;6.306;2022-07-29T05:38:53;7.82;;;3.70;;
18899;SDS011;9582;52.018;6.306;2022-07-29T05:41:20;5.97;;;3.70;;
18899;SDS011;9582;52.018;6.306;2022-07-29T05:43:47;6.22;;;4.05;;
18899;SDS011;9582;52.018;6.306;2022-07-29T05:46:13;4.47;;;3.65;;
18899;SDS011;9582;52.018;6.306;2022-07-29T05:48:40;6.40;;;4.03;;
18899;SDS011;9582;52.018;6.306;2022-07-29T05:51:07;6.03;;;3.83;;
18899;SDS011;9582;52.018;6.306;2022-07-29T05:53:33;7.22;;;4.15;;
18899;SDS011;9582;52.018;6.306;2022-07-29T05:56:03;4.72;;;3.33;;
18899;SDS011;9582;52.018;6.306;2022-07-29T05:58:30;7.35;;;4.05;;
18899;SDS011;9582;52.018;6.306;2022-07-29T06:00:57;5.32;;;3.97;;
18899;SDS011;9582;52.018;6.306;2022-07-29T06:03:24;7.13;;;4.22;;
18899;SDS011;9582;52.018;6.306;2022-07-29T06:05:50;4.85;;;4.45;;
18899;SDS011;9582;52.018;6.306;2022-07-29T06:08:17;7.70;;;4.20;;
18899;SDS011;9582;52.018;6.306;2022-07-29T06:10:43;10.55;;;3.95;;
18899;SDS011;9582;52.018;6.306;2022-07-29T06:13:12;7.55;;;4.25;;
18899;SDS011;9582;52.018;6.306;2022-07-29T06:15:40;4.55;;;3.95;;
18899;SDS011;9582;52.018;6.306;2022-07-29T06:18:07;5.75;;;3.67;;
18899;SDS011;9582;52.018;6.306;2022-07-29T06:20:35;7.80;;;4.10;;
18899;SDS011;9582;52.018;6.306;2022-07-29T06:23:01;5.60;;;3.80;;
18899;SDS011;9582;52.018;6.306;2022-07-29T06:25:29;7.68;;;3.55;;
18899;SDS011;9582;52.018;6.306;2022-07-29T06:27:57;5.35;;;3.67;;
18899;SDS011;9582;52.018;6.306;2022-07-29T06:30:25;2.88;;;2.65;;
18899;SDS011;9582;52.018;6.306;2022-07-29T06:32:51;4.95;;;3.70;;
18899;SDS011;9582;52.018;6.306;2022-07-29T06:35:18;4.85;;;3.58;;
18899;SDS011;9582;52.018;6.306;2022-07-29T06:37:44;5.82;;;3.70;;
18899;SDS011;9582;52.018;6.306;2022-07-29T06:40:11;7.13;;;3.90;;
18899;SDS011;9582;52.018;6.306;2022-07-29T06:42:55;4.72;;;3.70;;
18899;SDS011;9582;52.018;6.306;2022-07-29T06:45:22;4.80;;;3.67;;
18899;SDS011;9582;52.018;6.306;2022-07-29T06:47:50;4.90;;;3.70;;
18899;SDS011;9582;52.018;6.306;2022-07-29T06:50:18;5.13;;;3.50;;
18899;SDS011;9582;52.018;6.306;2022-07-29T06:52:44;6.28;;;4.00;;
18899;SDS011;9582;52.018;6.306;2022-07-29T06:55:11;5.32;;;3.95;;
18899;SDS011;9582;52.018;6.306;2022-07-29T06:57:37;6.70;;;4.40;;
18899;SDS011;9582;52.018;6.306;2022-07-29T07:00:04;4.03;;;3.42;;
18899;SDS011;9582;52.018;6.306;2022-07-29T07:02:33;4.47;;;3.38;;
18899;SDS011;9582;52.018;6.306;2022-07-29T07:05:01;4.90;;;3.58;;
18899;SDS011;9582;52.018;6.306;2022-07-29T07:07:28;5.20;;;3.85;;
18899;SDS011;9582;52.018;6.306;2022-07-29T07:09:54;4.97;;;3.92;;
18899;SDS011;9582;52.018;6.306;2022-07-29T07:12:21;7.53;;;4.32;;
18899;SDS011;9582;52.018;6.306;2022-07-29T07:14:47;4.35;;;3.95;;
18899;SDS011;9582;52.018;6.306;2022-07-29T07:17:14;6.72;;;3.75;;
18899;SDS011;9582;52.018;6.306;2022-07-29T07:19:40;7.85;;;3.97;;
18899;SDS011;9582;52.018;6.306;2022-07-29T07:22:08;6.90;;;3.53;;
18899;SDS011;9582;52.018;6.306;2022-07-29T07:24:35;7.03;;;3.88;;
18899;SDS011;9582;52.018;6.306;2022-07-29T07:27:01;5.15;;;3.97;;
18899;SDS011;9582;52.018;6.306;2022-07-29T07:29:27;6.20;;;3.63;;
18899;SDS011;9582;52.018;6.306;2022-07-29T07:31:54;3.58;;;3.22;;
18899;SDS011;9582;52.018;6.306;2022-07-29T07:34:21;4.63;;;3.42;;
18899;SDS011;9582;52.018;6.306;2022-07-29T07:36:47;5.05;;;3.47;;
18899;SDS011;9582;52.018;6.306;2022-07-29T07:39:15;5.68;;;3.83;;
18899;SDS011;9582;52.018;6.306;2022-07-29T07:41:41;8.82;;;3.80;;
18899;SDS011;9582;52.018;6.306;2022-07-29T07:44:08;6.88;;;3.67;;
18899;SDS011;9582;52.018;6.306;2022-07-29T07:46:34;6.20;;;3.45;;
18899;SDS011;9582;52.018;6.306;2022-07-29T07:49:01;6.32;;;4.05;;
18899;SDS011;9582;52.018;6.306;2022-07-29T07:51:27;7.68;;;3.92;;
18899;SDS011;9582;52.018;6.306;2022-07-29T07:53:54;4.85;;;3.40;;
18899;SDS011;9582;52.018;6.306;2022-07-29T07:56:22;5.68;;;3.95;;
18899;SDS011;9582;52.018;6.306;2022-07-29T07:58:48;5.25;;;3.60;;
18899;SDS011;9582;52.018;6.306;2022-07-29T08:01:14;4.25;;;3.50;;
18899;SDS011;9582;52.018;6.306;2022-07-29T08:03:43;4.68;;;4.15;;
18899;SDS011;9582;52.018;6.306;2022-07-29T08:06:10;5.43;;;4.35;;
18899;SDS011;9582;52.018;6.306;2022-07-29T08:08:37;5.80;;;4.20;;
18899;SDS011;9582;52.018;6.306;2022-07-29T08:11:03;4.72;;;3.92;;
18899;SDS011;9582;52.018;6.306;2022-07-29T08:13:32;4.60;;;3.85;;
18899;SDS011;9582;52.018;6.306;2022-07-29T08:15:59;5.55;;;3.83;;
18899;SDS011;9582;52.018;6.306;2022-07-29T08:18:27;6.13;;;4.18;;
18899;SDS011;9582;52.018;6.306;2022-07-29T08:20:55;4.38;;;3.97;;
18899;SDS011;9582;52.018;6.306;2022-07-29T08:23:21;4.60;;;3.70;;
18899;SDS011;9582;52.018;6.306;2022-07-29T08:25:48;7.20;;;3.70;;
18899;SDS011;9582;52.018;6.306;2022-07-29T08:28:15;5.55;;;3.85;;
18899;SDS011;9582;52.018;6.306;2022-07-29T08:30:43;9.90;;;4.18;;
18899;SDS011;9582;52.018;6.306;2022-07-29T08:33:10;4.95;;;3.88;;
18899;SDS011;9582;52.018;6.306;2022-07-29T08:35:36;4.53;;;3.63;;
18899;SDS011;9582;52.018;6.306;2022-07-29T08:38:04;6.50;;;3.60;;
18899;SDS011;9582;52.018;6.306;2022-07-29T08:40:31;4.63;;;3.60;;
18899;SDS011;9582;52.018;6.306;2022-07-29T08:42:57;9.75;;;4.60;;
18899;SDS011;9582;52.018;6.306;2022-07-29T08:45:25;7.13;;;3.95;;
18899;SDS011;9582;52.018;6.306;2022-07-29T08:47:54;5.78;;;4.20;;
18899;SDS011;9582;52.018;6.306;2022-07-29T08:50:21;6.72;;;4.47;;
18899;SDS011;9582;52.018;6.306;2022-07-29T08:52:47;7.65;;;4.70;;
18899;SDS011;9582;52.018;6.306;2022-07-29T08:55:15;5.32;;;4.32;;
18899;SDS011;9582;52.018;6.306;2022-07-29T08:57:43;4.97;;;4.30;;
18899;SDS011;9582;52.018;6.306;2022-07-29T09:00:10;6.78;;;4.10;;
18899;SDS011;9582;52.018;6.306;2022-07-29T09:02:39;8.25;;;4.65;;
18899;SDS011;9582;52.018;6.306;2022-07-29T09:05:09;6.65;;;4.20;;
18899;SDS011;9582;52.018;6.306;2022-07-29T09:07:36;5.88;;;4.43;;
18899;SDS011;9582;52.018;6.306;2022-07-29T09:10:05;8.98;;;4.88;;
18899;SDS011;9582;52.018;6.306;2022-07-29T09:12:32;7.25;;;4.38;;
18899;SDS011;9582;52.018;6.306;2022-07-29T09:14:59;6.00;;;4.57;;
18899;SDS011;9582;52.018;6.306;2022-07-29T09:17:41;7.57;;;4.72;;
18899;SDS011;9582;52.018;6.306;2022-07-29T09:20:11;6.55;;;4.93;;
18899;SDS011;9582;52.018;6.306;2022-07-29T09:22:39;6.05;;;4.55;;
18899;SDS011;9582;52.018;6.306;2022-07-29T09:25:06;6.45;;;4.68;;
18899;SDS011;9582;52.018;6.306;2022-07-29T09:27:33;7.47;;;4.47;;
18899;SDS011;9582;52.018;6.306;2022-07-29T09:30:01;8.02;;;4.80;;
18899;SDS011;9582;52.018;6.306;2022-07-29T09:32:30;5.85;;;4.22;;
18899;SDS011;9582;52.018;6.306;2022-07-29T09:35:18;6.88;;;4.30;;
18899;SDS011;9582;52.018;6.306;2022-07-29T09:37:46;6.25;;;4.60;;
18899;SDS011;9582;52.018;6.306;2022-07-29T09:40:14;4.60;;;3.90;;
18899;SDS011;9582;52.018;6.306;2022-07-29T09:42:42;7.35;;;4.78;;
18899;SDS011;9582;52.018;6.306;2022-07-29T09:45:09;5.20;;;4.60;;
18899;SDS011;9582;52.018;6.306;2022-07-29T09:47:44;5.93;;;4.53;;
18899;SDS011;9582;52.018;6.306;2022-07-29T09:50:14;6.90;;;4.47;;
18899;SDS011;9582;52.018;6.306;2022-07-29T09:52:48;7.18;;;4.97;;
18899;SDS011;9582;52.018;6.306;2022-07-29T09:55:17;8.65;;;5.18;;
18899;SDS011;9582;52.018;6.306;2022-07-29T09:57:44;7.10;;;5.30;;
18899;SDS011;9582;52.018;6.306;2022-07-29T10:00:12;6.50;;;5.35;;
18899;SDS011;9582;52.018;6.306;2022-07-29T10:02:41;6.70;;;5.22;;
18899;SDS011;9582;52.018;6.306;2022-07-29T10:05:16;6.00;;;4.88;;
18899;SDS011;9582;52.018;6.306;2022-07-29T10:07:44;7.15;;;5.03;;
18899;SDS011;9582;52.018;6.306;2022-07-29T10:10:19;7.32;;;5.40;;
18899;SDS011;9582;52.018;6.306;2022-07-29T10:12:51;8.85;;;5.35;;
18899;SDS011;9582;52.018;6.306;2022-07-29T10:15:20;6.25;;;4.85;;
18899;SDS011;9582;52.018;6.306;2022-07-29T10:17:48;10.63;;;6.93;;
18899;SDS011;9582;52.018;6.306;2022-07-29T10:20:15;8.82;;;5.10;;
18899;SDS011;9582;52.018;6.306;2022-07-29T10:22:42;8.27;;;5.35;;
18899;SDS011;9582;52.018;6.306;2022-07-29T10:25:09;8.65;;;4.80;;
18899;SDS011;9582;52.018;6.306;2022-07-29T10:27:37;6.38;;;4.63;;
18899;SDS011;9582;52.018;6.306;2022-07-29T10:30:05;6.57;;;4.35;;
18899;SDS011;9582;52.018;6.306;2022-07-29T10:32:42;6.25;;;4.32;;
18899;SDS011;9582;52.018;6.306;2022-07-29T10:35:30;6.45;;;4.75;;
18899;SDS011;9582;52.018;6.306;2022-07-29T10:38:21;5.65;;;4.95;;
18899;SDS011;9582;52.018;6.306;2022-07-29T10:41:11;6.28;;;5.05;;
18899;SDS011;9582;52.018;6.306;2022-07-29T10:43:58;9.68;;;5.38;;
18899;SDS011;9582;52.018;6.306;2022-07-29T10:46:26;6.45;;;4.22;;
18899;SDS011;9582;52.018;6.306;2022-07-29T10:49:04;6.63;;;4.28;;
18899;SDS011;9582;52.018;6.306;2022-07-29T10:54:48;5.43;;;3.58;;
18899;SDS011;9582;52.018;6.306;2022-07-29T10:57:17;7.35;;;4.53;;
18899;SDS011;9582;52.018;6.306;2022-07-29T10:59:47;5.65;;;3.97;;
18899;SDS011;9582;52.018;6.306;2022-07-29T11:05:10;7.78;;;4.18;;
18899;SDS011;9582;52.018;6.306;2022-07-29T11:07:39;4.20;;;3.65;;
18899;SDS011;9582;52.018;6.306;2022-07-29T11:10:25;6.40;;;3.85;;
18899;SDS011;9582;52.018;6.306;2022-07-29T11:12:52;5.18;;;4.00;;
18899;SDS011;9582;52.018;6.306;2022-07-29T11:15:20;6.07;;;3.67;;
18899;SDS011;9582;52.018;6.306;2022-07-29T11:18:07;6.13;;;3.75;;
18899;SDS011;9582;52.018;6.306;2022-07-29T11:20:38;6.28;;;3.67;;
18899;SDS011;9582;52.018;6.306;2022-07-29T11:23:19;6.03;;;3.70;;
18899;SDS011;9582;52.018;6.306;2022-07-29T11:28:48;5.50;;;3.25;;
18899;SDS011;9582;52.018;6.306;2022-07-29T11:31:35;5.03;;;3.47;;
18899;SDS011;9582;52.018;6.306;2022-07-29T11:34:19;4.10;;;3.10;;
18899;SDS011;9582;52.018;6.306;2022-07-29T11:42:41;5.88;;;3.63;;
18899;SDS011;9582;52.018;6.306;2022-07-29T11:45:19;5.28;;;3.20;;
18899;SDS011;9582;52.018;6.306;2022-07-29T11:48:02;6.80;;;3.42;;
18899;SDS011;9582;52.018;6.306;2022-07-29T11:50:31;5.03;;;3.10;;
18899;SDS011;9582;52.018;6.306;2022-07-29T11:53:00;4.40;;;2.40;;
18899;SDS011;9582;52.018;6.306;2022-07-29T11:55:28;5.35;;;2.80;;
18899;SDS011;9582;52.018;6.306;2022-07-29T11:57:56;5.22;;;2.60;;
18899;SDS011;9582;52.018;6.306;2022-07-29T12:00:29;5.30;;;2.55;;
18899;SDS011;9582;52.018;6.306;2022-07-29T12:02:57;6.43;;;2.55;;
18899;SDS011;9582;52.018;6.306;2022-07-29T12:05:36;6.25;;;3.20;;
18899;SDS011;9582;52.018;6.306;2022-07-29T12:08:05;4.50;;;2.70;;
18899;SDS011;9582;52.018;6.306;2022-07-29T12:10:33;5.95;;;3.13;;
18899;SDS011;9582;52.018;6.306;2022-07-29T12:13:00;5.20;;;2.63;;
18899;SDS011;9582;52.018;6.306;2022-07-29T12:15:26;3.38;;;2.67;;
18899;SDS011;9582;52.018;6.306;2022-07-29T12:17:53;6.93;;;3.45;;
18899;SDS011;9582;52.018;6.306;2022-07-29T12:20:23;6.60;;;2.83;;
18899;SDS011;9582;52.018;6.306;2022-07-29T12:22:52;6.30;;;2.60;;
18899;SDS011;9582;52.018;6.306;2022-07-29T12:25:20;3.47;;;2.50;;
18899;SDS011;9582;52.018;6.306;2022-07-29T12:27:47;3.88;;;2.53;;
18899;SDS011;9582;52.018;6.306;2022-07-29T12:30:23;5.20;;;1.92;;
18899;SDS011;9582;52.018;6.306;2022-07-29T12:33:01;5.93;;;2.92;;
18899;SDS011;9582;52.018;6.306;2022-07-29T12:35:27;4.13;;;2.00;;
18899;SDS011;9582;52.018;6.306;2022-07-29T12:37:55;5.15;;;2.13;;
18899;SDS011;9582;52.018;6.306;2022-07-29T12:40:24;7.40;;;2.40;;
18899;SDS011;9582;52.018;6.306;2022-07-29T12:45:34;3.65;;;1.98;;
18899;SDS011;9582;52.018;6.306;2022-07-29T12:48:01;3.45;;;2.20;;
18899;SDS011;9582;52.018;6.306;2022-07-29T12:50:27;2.63;;;2.00;;
18899;SDS011;9582;52.018;6.306;2022-07-29T12:53:03;4.38;;;2.47;;
18899;SDS011;9582;52.018;6.306;2022-07-29T12:55:38;4.85;;;2.90;;
18899;SDS011;9582;52.018;6.306;2022-07-29T12:58:06;5.85;;;3.05;;
18899;SDS011;9582;52.018;6.306;2022-07-29T13:00:32;6.32;;;2.53;;
18899;SDS011;9582;52.018;6.306;2022-07-29T13:03:00;6.13;;;2.33;;
18899;SDS011;9582;52.018;6.306;2022-07-29T13:05:38;4.60;;;2.10;;
18899;SDS011;9582;52.018;6.306;2022-07-29T13:08:13;5.30;;;3.17;;
18899;SDS011;9582;52.018;6.306;2022-07-29T13:10:41;6.90;;;2.78;;
18899;SDS011;9582;52.018;6.306;2022-07-29T13:13:08;7.30;;;2.58;;
18899;SDS011;9582;52.018;6.306;2022-07-29T13:15:36;4.15;;;2.83;;
18899;SDS011;9582;52.018;6.306;2022-07-29T13:18:03;3.60;;;3.20;;
18899;SDS011;9582;52.018;6.306;2022-07-29T13:20:30;6.25;;;2.63;;
18899;SDS011;9582;52.018;6.306;2022-07-29T13:22:57;6.72;;;3.10;;
18899;SDS011;9582;52.018;6.306;2022-07-29T13:25:26;7.65;;;3.13;;
18899;SDS011;9582;52.018;6.306;2022-07-29T13:27:54;5.15;;;2.42;;
18899;SDS011;9582;52.018;6.306;2022-07-29T13:30:21;5.40;;;2.88;;
18899;SDS011;9582;52.018;6.306;2022-07-29T13:32:49;5.15;;;2.33;;
18899;SDS011;9582;52.018;6.306;2022-07-29T13:35:16;5.80;;;2.30;;
18899;SDS011;9582;52.018;6.306;2022-07-29T13:37:43;6.05;;;2.10;;
18899;SDS011;9582;52.018;6.306;2022-07-29T13:40:10;3.25;;;1.73;;
18899;SDS011;9582;52.018;6.306;2022-07-29T13:42:40;5.15;;;2.22;;
18899;SDS011;9582;52.018;6.306;2022-07-29T13:45:07;4.18;;;2.05;;
18899;SDS011;9582;52.018;6.306;2022-07-29T13:47:35;1.92;;;1.80;;
18899;SDS011;9582;52.018;6.306;2022-07-29T13:50:02;4.90;;;2.40;;
18899;SDS011;9582;52.018;6.306;2022-07-29T13:52:30;3.25;;;2.17;;
18899;SDS011;9582;52.018;6.306;2022-07-29T13:54:56;8.55;;;2.28;;
18899;SDS011;9582;52.018;6.306;2022-07-29T13:57:23;4.82;;;2.28;;
18899;SDS011;9582;52.018;6.306;2022-07-29T13:59:51;3.58;;;2.13;;
18899;SDS011;9582;52.018;6.306;2022-07-29T14:02:17;4.50;;;2.00;;
18899;SDS011;9582;52.018;6.306;2022-07-29T14:04:44;4.88;;;2.42;;
18899;SDS011;9582;52.018;6.306;2022-07-29T14:07:10;3.63;;;2.38;;
18899;SDS011;9582;52.018;6.306;2022-07-29T14:09:37;5.25;;;2.08;;
18899;SDS011;9582;52.018;6.306;2022-07-29T14:12:04;3.45;;;2.00;;
18899;SDS011;9582;52.018;6.306;2022-07-29T14:14:31;4.75;;;2.42;;
18899;SDS011;9582;52.018;6.306;2022-07-29T14:16:59;3.83;;;2.25;;
18899;SDS011;9582;52.018;6.306;2022-07-29T14:19:28;6.07;;;2.50;;
18899;SDS011;9582;52.018;6.306;2022-07-29T14:21:54;5.13;;;2.00;;
18899;SDS011;9582;52.018;6.306;2022-07-29T14:24:20;3.70;;;2.20;;
18899;SDS011;9582;52.018;6.306;2022-07-29T14:26:47;4.28;;;2.33;;
18899;SDS011;9582;52.018;6.306;2022-07-29T14:29:13;4.20;;;2.30;;
18899;SDS011;9582;52.018;6.306;2022-07-29T14:31:40;6.95;;;3.05;;
18899;SDS011;9582;52.018;6.306;2022-07-29T14:34:09;3.67;;;2.30;;
18899;SDS011;9582;52.018;6.306;2022-07-29T14:36:35;4.75;;;2.33;;
18899;SDS011;9582;52.018;6.306;2022-07-29T14:39:02;7.05;;;2.50;;
18899;SDS011;9582;52.018;6.306;2022-07-29T14:41:29;8.57;;;2.60;;
18899;SDS011;9582;52.018;6.306;2022-07-29T14:43:55;7.13;;;2.90;;
18899;SDS011;9582;52.018;6.306;2022-07-29T14:46:22;8.73;;;2.78;;
18899;SDS011;9582;52.018;6.306;2022-07-29T14:48:49;6.35;;;2.85;;
18899;SDS011;9582;52.018;6.306;2022-07-29T14:51:17;4.47;;;2.60;;
18899;SDS011;9582;52.018;6.306;2022-07-29T14:53:43;3.90;;;2.40;;
18899;SDS011;9582;52.018;6.306;2022-07-29T14:56:10;7.28;;;2.40;;
18899;SDS011;9582;52.018;6.306;2022-07-29T14:58:36;5.57;;;2.35;;
18899;SDS011;9582;52.018;6.306;2022-07-29T15:01:03;3.33;;;2.40;;
18899;SDS011;9582;52.018;6.306;2022-07-29T15:03:29;3.83;;;2.58;;
18899;SDS011;9582;52.018;6.306;2022-07-29T15:05:56;4.22;;;2.38;;
18899;SDS011;9582;52.018;6.306;2022-07-29T15:08:24;5.53;;;2.40;;
18899;SDS011;9582;52.018;6.306;2022-07-29T15:10:52;4.05;;;2.83;;
18899;SDS011;9582;52.018;6.306;2022-07-29T15:13:19;5.38;;;2.42;;
18899;SDS011;9582;52.018;6.306;2022-07-29T15:15:46;4.07;;;2.70;;
18899;SDS011;9582;52.018;6.306;2022-07-29T15:18:12;6.50;;;2.47;;
18899;SDS011;9582;52.018;6.306;2022-07-29T15:20:38;6.70;;;2.80;;
18899;SDS011;9582;52.018;6.306;2022-07-29T15:23:05;4.93;;;3.00;;
18899;SDS011;9582;52.018;6.306;2022-07-29T15:25:35;5.07;;;2.85;;
18899;SDS011;9582;52.018;6.306;2022-07-29T15:28:02;3.95;;;2.33;;